Time;durP1;ratioP1;P1;durP2;ratioP2;P2;SDS_P1;SDS_P2;PMS_P1;PMS_P2;Temp;Humidity;BMP_temperature;BMP_pressure;BME280_temperature;BME280_humidity;BME280_pressure;Samples;Min_cycle;Max_cycle;Signal;HPM_P1;HPM_P2
2020/12/06 00:01:40;;;;;;;23.70;12.63;;;5.80;99.90;;;;;;5044237;28;20547;-77
2020/12/06 00:04:07;;;;;;;22.50;12.50;;;5.90;99.90;;;;;;5046761;28;20031;-77
2020/12/06 00:06:33;;;;;;;25.25;12.95;;;5.80;99.90;;;;;;5047378;28;20025;-76
2020/12/06 00:08:59;;;;;;;24.55;12.57;;;5.80;99.90;;;;;;5040696;28;20033;-76
2020/12/06 00:11:24;;;;;;;23.95;13.00;;;5.60;99.90;;;;;;5037967;28;20021;-77
2020/12/06 00:13:50;;;;;;;26.17;13.52;;;5.60;99.90;;;;;;5045897;28;20019;-77
2020/12/06 00:16:17;;;;;;;24.27;13.15;;;5.60;99.90;;;;;;5045805;28;20379;-76
2020/12/06 00:18:43;;;;;;;24.75;13.13;;;5.50;99.90;;;;;;5046968;28;20052;-76
2020/12/06 00:21:13;;;;;;;28.25;13.43;;;5.60;99.90;;;;;;5042970;28;20040;-77
2020/12/06 00:23:39;;;;;;;24.92;12.77;;;5.50;99.90;;;;;;5047933;28;20029;-77
2020/12/06 00:26:05;;;;;;;24.05;13.43;;;5.50;99.90;;;;;;5044416;28;20028;-77
2020/12/06 00:28:30;;;;;;;26.17;13.95;;;5.40;99.90;;;;;;5042767;28;20112;-77
2020/12/06 00:30:56;;;;;;;25.98;14.75;;;5.40;99.90;;;;;;5043421;28;20025;-78
2020/12/06 00:33:22;;;;;;;24.60;12.88;;;5.40;99.90;;;;;;5034279;28;20083;-77
2020/12/06 00:35:47;;;;;;;28.40;14.77;;;5.30;99.90;;;;;;5037402;28;20045;-77
2020/12/06 00:38:12;;;;;;;24.67;13.82;;;5.40;99.90;;;;;;5047036;28;20021;-76
2020/12/06 00:40:38;;;;;;;27.88;14.32;;;5.40;99.90;;;;;;5046487;28;20025;-77
2020/12/06 00:43:03;;;;;;;27.80;15.18;;;5.40;99.90;;;;;;5040445;28;20389;-77
2020/12/06 00:45:29;;;;;;;26.33;14.77;;;5.30;99.90;;;;;;5036376;28;20040;-76
2020/12/06 00:47:54;;;;;;;30.15;14.93;;;5.40;99.90;;;;;;5038063;28;20201;-77
2020/12/06 00:50:20;;;;;;;33.75;15.90;;;5.40;99.90;;;;;;5046141;28;20128;-77
2020/12/06 00:52:45;;;;;;;33.00;15.60;;;5.40;99.90;;;;;;5044769;28;20033;-76
2020/12/06 00:55:11;;;;;;;32.60;16.02;;;5.40;99.90;;;;;;5043675;28;20095;-77
2020/12/06 00:57:36;;;;;;;32.53;16.60;;;5.50;99.90;;;;;;5042649;28;20040;-77
2020/12/06 01:00:06;;;;;;;31.58;14.73;;;5.50;99.90;;;;;;5044413;28;20028;-76
2020/12/06 01:02:32;;;;;;;31.95;16.05;;;5.50;99.90;;;;;;5047033;28;20361;-77
2020/12/06 01:04:57;;;;;;;28.85;15.40;;;5.50;99.90;;;;;;5044401;28;20120;-76
2020/12/06 01:07:23;;;;;;;31.38;15.70;;;5.50;99.90;;;;;;5042948;28;20638;-76
2020/12/06 01:09:48;;;;;;;30.35;16.83;;;5.50;99.90;;;;;;5047251;28;20052;-77
2020/12/06 01:12:14;;;;;;;33.92;16.33;;;5.40;99.90;;;;;;5043379;28;20424;-77
2020/12/06 01:14:39;;;;;;;33.72;16.60;;;5.40;99.90;;;;;;5042515;28;20116;-77
2020/12/06 01:17:04;;;;;;;31.83;17.05;;;5.40;99.90;;;;;;5040281;28;20033;-76
2020/12/06 01:19:30;;;;;;;33.92;16.35;;;5.40;99.90;;;;;;5045983;28;20025;-77
2020/12/06 01:21:55;;;;;;;30.92;16.38;;;5.50;99.90;;;;;;5039868;28;20504;-77
2020/12/06 01:24:21;;;;;;;30.90;15.88;;;5.50;99.90;;;;;;5037979;28;20025;-77
2020/12/06 01:26:47;;;;;;;31.38;16.83;;;5.50;99.90;;;;;;5045737;28;20546;-77
2020/12/06 01:29:13;;;;;;;37.67;18.23;;;5.50;99.90;;;;;;5044082;28;20044;-77
2020/12/06 01:31:44;;;;;;;33.78;17.15;;;5.50;99.90;;;;;;5046637;28;20440;-74
2020/12/06 01:34:09;;;;;;;31.50;17.35;;;5.40;99.90;;;;;;5040584;28;20036;-74
2020/12/06 01:36:35;;;;;;;36.20;17.98;;;5.40;99.90;;;;;;5036728;28;20035;-75
2020/12/06 01:39:00;;;;;;;36.75;18.10;;;5.40;99.90;;;;;;5042461;28;20506;-74
2020/12/06 01:41:26;;;;;;;38.22;18.00;;;5.50;99.90;;;;;;5043466;28;20056;-77
2020/12/06 01:43:56;;;;;;;35.55;17.92;;;5.50;99.90;;;;;;5046656;28;20075;-77
2020/12/06 01:46:23;;;;;;;38.13;18.35;;;5.60;99.90;;;;;;5046552;28;20488;-77
2020/12/06 01:48:52;;;;;;;34.92;17.48;;;5.60;99.90;;;;;;5044777;28;20033;-76
2020/12/06 01:51:18;;;;;;;38.83;19.10;;;5.60;99.90;;;;;;5039912;28;20025;-76
2020/12/06 01:53:48;;;;;;;37.33;19.02;;;5.60;99.90;;;;;;5045918;28;20040;-76
2020/12/06 01:56:14;;;;;;;36.75;18.10;;;5.60;99.90;;;;;;5041437;28;20025;-76
2020/12/06 01:58:40;;;;;;;37.08;18.92;;;5.70;99.90;;;;;;5041720;28;20025;-77
2020/12/06 02:01:09;;;;;;;37.58;18.98;;;5.70;99.90;;;;;;5046006;28;20042;-76
2020/12/06 02:03:36;;;;;;;40.47;19.55;;;5.70;99.90;;;;;;5046510;28;20021;-77
2020/12/06 02:06:03;;;;;;;36.90;19.25;;;5.70;99.90;;;;;;5044588;28;20029;-77
2020/12/06 02:08:28;;;;;;;37.58;18.83;;;5.70;99.90;;;;;;5048276;28;20025;-77
2020/12/06 02:10:54;;;;;;;34.85;18.42;;;5.80;99.90;;;;;;5041988;28;20515;-77
2020/12/06 02:13:23;;;;;;;38.45;18.70;;;5.80;99.90;;;;;;5046500;28;20086;-77
2020/12/06 02:15:49;;;;;;;39.80;20.17;;;5.80;99.90;;;;;;5045770;28;20025;-77
2020/12/06 02:18:15;;;;;;;37.45;19.58;;;5.80;99.90;;;;;;5041082;28;20433;-76
2020/12/06 02:20:41;;;;;;;38.03;18.88;;;5.80;99.90;;;;;;5044444;28;20025;-77
2020/12/06 02:23:07;;;;;;;39.00;18.42;;;5.80;99.90;;;;;;5036012;28;20024;-77
2020/12/06 02:25:39;;;;;;;41.13;19.25;;;5.80;99.90;;;;;;5037991;28;20079;-76
2020/12/06 02:28:08;;;;;;;37.55;18.13;;;5.80;99.90;;;;;;5040242;28;20285;-77
2020/12/06 02:30:35;;;;;;;39.20;19.33;;;5.80;99.90;;;;;;5035804;28;20234;-77
2020/12/06 02:33:04;;;;;;;38.35;18.13;;;5.80;99.90;;;;;;5044715;28;20029;-77
2020/12/06 02:35:30;;;;;;;39.55;18.42;;;5.90;99.90;;;;;;5044269;28;20021;-77
2020/12/06 02:37:56;;;;;;;42.08;19.33;;;6.00;99.90;;;;;;5037706;28;20025;-76
2020/12/06 02:40:21;;;;;;;35.83;18.08;;;6.10;99.90;;;;;;5046454;28;20444;-77
2020/12/06 02:42:46;;;;;;;37.30;18.73;;;6.10;99.90;;;;;;5043813;28;20037;-77
2020/12/06 02:45:12;;;;;;;39.08;17.77;;;6.10;99.90;;;;;;5046881;28;20468;-76
2020/12/06 02:47:38;;;;;;;36.38;18.30;;;6.10;99.90;;;;;;5044522;28;20037;-77
2020/12/06 02:50:04;;;;;;;38.75;19.00;;;6.20;99.90;;;;;;5046170;28;20033;-77
2020/12/06 02:52:30;;;;;;;36.92;17.80;;;6.20;99.90;;;;;;5041755;28;20033;-77
2020/12/06 02:54:55;;;;;;;40.33;17.73;;;6.20;99.90;;;;;;5046005;28;20030;-76
2020/12/06 02:57:21;;;;;;;38.38;17.35;;;6.20;99.90;;;;;;5031908;28;20535;-77
2020/12/06 02:59:46;;;;;;;36.50;17.42;;;6.10;99.90;;;;;;5046248;28;20043;-76
2020/12/06 03:02:12;;;;;;;35.90;16.77;;;6.20;99.90;;;;;;5043004;28;20392;-77
2020/12/06 03:04:37;;;;;;;34.88;16.40;;;6.30;99.90;;;;;;5043224;28;20036;-76
2020/12/06 03:07:03;;;;;;;32.00;16.67;;;6.30;99.90;;;;;;5046176;28;20033;-76
2020/12/06 03:09:28;;;;;;;28.77;15.15;;;6.30;99.90;;;;;;5042907;28;20479;-76
2020/12/06 03:11:54;;;;;;;33.63;16.05;;;6.30;99.90;;;;;;5045904;28;20021;-77
2020/12/06 03:14:19;;;;;;;35.00;16.73;;;6.30;99.90;;;;;;5049801;28;20021;-77
2020/12/06 03:16:45;;;;;;;30.85;15.05;;;6.30;99.90;;;;;;5047031;28;20754;-77
2020/12/06 03:19:10;;;;;;;30.10;15.98;;;6.40;99.90;;;;;;5050143;28;20025;-76
2020/12/06 03:21:36;;;;;;;32.30;15.35;;;6.30;99.90;;;;;;5048293;28;20511;-77
2020/12/06 03:24:01;;;;;;;34.35;16.45;;;6.40;99.90;;;;;;5047172;28;20075;-77
2020/12/06 03:26:27;;;;;;;32.08;15.65;;;6.40;99.90;;;;;;5042011;28;20070;-76
2020/12/06 03:28:52;;;;;;;28.50;15.20;;;6.40;99.90;;;;;;5047367;28;20041;-77
2020/12/06 03:31:18;;;;;;;27.73;14.50;;;6.40;99.90;;;;;;5049577;28;20033;-77
2020/12/06 03:33:43;;;;;;;28.02;15.05;;;6.40;99.90;;;;;;5045637;28;20040;-77
2020/12/06 03:36:09;;;;;;;31.10;15.43;;;6.40;99.90;;;;;;5046068;28;20032;-76
2020/12/06 03:38:34;;;;;;;31.90;15.10;;;6.50;99.90;;;;;;5038691;28;20048;-76
2020/12/06 03:41:00;;;;;;;29.15;14.95;;;6.50;99.90;;;;;;5047672;28;20032;-77
2020/12/06 03:43:25;;;;;;;29.48;14.65;;;6.50;99.90;;;;;;5046692;28;20541;-77
2020/12/06 03:45:51;;;;;;;28.38;14.93;;;6.60;99.90;;;;;;5045901;28;20024;-77
2020/12/06 03:48:16;;;;;;;29.33;14.70;;;6.60;99.90;;;;;;5046827;28;20095;-76
2020/12/06 03:50:42;;;;;;;30.65;15.30;;;6.60;99.90;;;;;;5049030;28;20913;-76
2020/12/06 03:53:07;;;;;;;28.70;14.85;;;6.60;99.90;;;;;;5048646;28;20024;-76
2020/12/06 03:55:32;;;;;;;27.88;14.55;;;6.70;99.90;;;;;;5042990;28;20038;-77
2020/12/06 03:57:58;;;;;;;29.13;15.13;;;6.70;99.90;;;;;;5047163;28;20029;-76
2020/12/06 04:00:24;;;;;;;30.58;14.50;;;6.70;99.90;;;;;;5046278;28;20048;-77
2020/12/06 04:02:52;;;;;;;26.98;14.15;;;6.70;99.90;;;;;;5049300;28;20028;-77
2020/12/06 04:05:21;;;;;;;30.92;14.88;;;6.70;99.90;;;;;;5046167;28;20123;-77
2020/12/06 04:07:49;;;;;;;24.15;12.75;;;6.80;99.90;;;;;;5049643;28;20037;-77
2020/12/06 04:10:15;;;;;;;30.67;14.60;;;6.80;99.90;;;;;;5041678;28;20090;-74
2020/12/06 04:12:41;;;;;;;32.90;14.63;;;6.80;99.90;;;;;;5039754;28;20021;-74
2020/12/06 04:15:06;;;;;;;29.10;14.27;;;6.80;99.90;;;;;;5047348;28;20024;-77
2020/12/06 04:17:32;;;;;;;31.90;15.15;;;6.80;99.90;;;;;;5041011;28;20381;-77
2020/12/06 04:19:57;;;;;;;33.20;14.63;;;6.80;99.90;;;;;;5042310;28;20021;-76
2020/12/06 04:22:23;;;;;;;30.55;15.18;;;6.80;99.90;;;;;;5048504;28;20154;-77
2020/12/06 04:24:48;;;;;;;32.20;14.40;;;6.90;99.90;;;;;;5045131;28;20400;-77
2020/12/06 04:27:14;;;;;;;29.95;14.38;;;6.90;99.90;;;;;;5046676;28;20037;-76
2020/12/06 04:29:39;;;;;;;33.17;14.73;;;6.80;99.90;;;;;;5043565;28;20076;-76
2020/12/06 04:32:04;;;;;;;28.17;14.15;;;6.90;99.90;;;;;;5048417;28;20028;-76
2020/12/06 04:34:30;;;;;;;27.05;14.48;;;6.80;99.90;;;;;;5048720;28;20368;-77
2020/12/06 04:36:55;;;;;;;26.35;14.18;;;6.80;99.90;;;;;;5039535;28;20025;-76
2020/12/06 04:39:21;;;;;;;26.60;14.23;;;6.80;99.90;;;;;;5044397;28;20025;-77
2020/12/06 04:41:46;;;;;;;26.27;13.95;;;6.80;99.90;;;;;;5049067;28;20153;-77
2020/12/06 04:44:12;;;;;;;28.65;14.88;;;6.80;99.90;;;;;;5045021;28;20538;-76
2020/12/06 04:46:38;;;;;;;29.98;14.45;;;6.80;99.90;;;;;;5045998;28;20115;-76
2020/12/06 04:49:07;;;;;;;31.45;15.57;;;6.80;99.90;;;;;;5045151;28;20654;-76
2020/12/06 04:51:38;;;;;;;27.40;14.43;;;6.70;99.90;;;;;;5043600;28;20021;-77
2020/12/06 04:54:11;;;;;;;31.05;14.98;;;6.70;99.90;;;;;;5045276;28;20471;-77
2020/12/06 04:56:39;;;;;;;31.05;15.38;;;6.70;99.90;;;;;;5045498;28;20120;-77
2020/12/06 04:59:06;;;;;;;28.65;14.68;;;6.70;99.90;;;;;;5047540;28;20140;-77
2020/12/06 05:01:37;;;;;;;28.90;13.82;;;6.70;99.90;;;;;;5046787;28;20071;-77
2020/12/06 05:04:12;;;;;;;30.35;15.48;;;6.70;99.90;;;;;;5047110;28;20111;-77
2020/12/06 05:06:39;;;;;;;32.25;15.10;;;6.60;99.90;;;;;;5044360;28;20041;-76
2020/12/06 05:09:08;;;;;;;27.77;14.30;;;6.60;99.90;;;;;;5035639;28;20127;-76
2020/12/06 05:11:36;;;;;;;32.28;14.07;;;6.60;99.90;;;;;;5040193;28;20031;-77
2020/12/06 05:14:01;;;;;;;28.52;15.10;;;6.60;99.90;;;;;;5047331;28;20025;-76
2020/12/06 05:16:29;;;;;;;29.40;14.35;;;6.60;99.90;;;;;;5047619;28;20029;-76
2020/12/06 05:18:54;;;;;;;31.02;14.63;;;6.60;99.90;;;;;;5045296;28;20104;-76
2020/12/06 05:21:41;;;;;;;31.55;15.23;;;6.60;99.90;;;;;;5044686;28;20160;-76
2020/12/06 05:24:07;;;;;;;30.48;15.45;;;6.60;99.90;;;;;;5035853;28;20036;-76
2020/12/06 05:26:33;;;;;;;25.88;13.40;;;6.70;99.90;;;;;;5043519;28;20025;-76
2020/12/06 05:29:00;;;;;;;29.75;15.63;;;6.60;99.90;;;;;;5037465;28;20045;-76
2020/12/06 05:31:26;;;;;;;28.85;14.85;;;6.70;99.90;;;;;;5035710;28;20029;-76
2020/12/06 05:33:53;;;;;;;29.60;14.95;;;6.60;99.90;;;;;;5044222;28;20498;-76
2020/12/06 05:36:20;;;;;;;26.23;14.30;;;6.60;99.90;;;;;;5040259;28;20057;-76
2020/12/06 05:38:45;;;;;;;31.70;15.40;;;6.70;99.90;;;;;;5036874;28;20036;-76
2020/12/06 05:41:11;;;;;;;26.63;14.00;;;6.70;99.90;;;;;;5043215;28;20017;-76
2020/12/06 05:43:37;;;;;;;26.30;14.65;;;6.70;99.90;;;;;;5044557;28;20029;-76
2020/12/06 05:46:04;;;;;;;33.55;14.88;;;6.70;99.90;;;;;;5039846;28;20418;-76
2020/12/06 05:48:31;;;;;;;25.88;13.43;;;6.70;99.90;;;;;;5045631;28;20033;-76
2020/12/06 05:50:57;;;;;;;30.98;14.38;;;6.80;99.90;;;;;;5042511;28;20085;-76
2020/12/06 05:53:23;;;;;;;25.80;13.55;;;6.80;99.90;;;;;;5044478;28;20365;-76
2020/12/06 05:55:55;;;;;;;23.65;13.00;;;6.80;99.90;;;;;;5042337;28;20036;-76
2020/12/06 05:58:22;;;;;;;31.38;14.65;;;6.80;99.90;;;;;;5048232;28;20033;-77
2020/12/06 06:00:49;;;;;;;26.05;13.93;;;6.80;99.90;;;;;;5041692;28;20032;-77
2020/12/06 06:03:23;;;;;;;30.90;14.63;;;6.80;99.90;;;;;;5036311;28;20032;-76
2020/12/06 06:05:50;;;;;;;26.63;13.88;;;6.80;99.90;;;;;;5045852;28;20021;-76
2020/12/06 06:08:16;;;;;;;27.60;14.13;;;6.80;99.90;;;;;;5045643;28;20087;-76
2020/12/06 06:10:51;;;;;;;30.55;14.95;;;6.80;99.90;;;;;;5046384;28;20033;-77
2020/12/06 06:13:21;;;;;;;30.42;14.95;;;6.80;99.90;;;;;;5043323;28;20056;-76
2020/12/06 06:15:47;;;;;;;28.13;14.63;;;6.70;99.90;;;;;;5036715;28;20022;-77
2020/12/06 06:18:15;;;;;;;27.73;13.98;;;6.70;99.90;;;;;;5039153;28;20327;-76
2020/12/06 06:20:41;;;;;;;25.73;13.73;;;6.80;99.90;;;;;;5039294;28;20051;-76
2020/12/06 06:23:08;;;;;;;23.50;13.38;;;6.80;99.90;;;;;;5042520;28;20025;-76
2020/12/06 06:25:34;;;;;;;28.98;14.13;;;6.80;99.90;;;;;;5039768;28;20597;-76
2020/12/06 06:28:02;;;;;;;28.45;12.98;;;6.80;99.90;;;;;;5042216;28;20029;-76
2020/12/06 06:30:29;;;;;;;26.15;14.90;;;6.70;99.90;;;;;;5039393;28;20033;-76
2020/12/06 06:32:55;;;;;;;31.17;14.65;;;6.70;99.90;;;;;;5042242;28;20028;-76
2020/12/06 06:35:22;;;;;;;28.70;13.30;;;6.70;99.90;;;;;;5046778;28;20439;-76
2020/12/06 06:37:47;;;;;;;27.05;14.05;;;6.80;99.90;;;;;;5033504;28;20029;-77
2020/12/06 06:40:13;;;;;;;28.20;14.13;;;6.80;99.90;;;;;;5040668;28;20499;-77
2020/12/06 06:42:38;;;;;;;27.95;13.18;;;6.80;99.90;;;;;;5043106;28;20033;-76
2020/12/06 06:45:07;;;;;;;27.83;13.65;;;6.80;99.90;;;;;;5044982;28;20074;-76
2020/12/06 06:47:36;;;;;;;31.80;13.38;;;6.80;99.90;;;;;;5047759;28;20032;-77
2020/12/06 06:50:02;;;;;;;26.40;12.95;;;6.90;99.90;;;;;;5037356;28;20037;-76
2020/12/06 06:52:29;;;;;;;25.65;13.50;;;6.90;99.90;;;;;;5045364;28;20032;-76
2020/12/06 06:54:57;;;;;;;25.40;12.95;;;6.90;99.90;;;;;;5049557;28;20106;-76
2020/12/06 06:57:25;;;;;;;29.38;14.07;;;6.90;99.90;;;;;;5048223;28;20498;-76
2020/12/06 06:59:53;;;;;;;26.35;13.13;;;6.90;99.90;;;;;;5044835;28;20255;-77
2020/12/06 07:02:35;;;;;;;25.48;13.48;;;6.90;99.90;;;;;;5048391;28;20028;-76
2020/12/06 07:05:04;;;;;;;28.17;13.07;;;6.90;99.90;;;;;;5041435;28;20029;-77
2020/12/06 07:07:52;;;;;;;29.17;13.65;;;6.90;99.90;;;;;;5044358;28;20071;-76
2020/12/06 07:10:23;;;;;;;25.50;12.00;;;7.00;99.90;;;;;;5043693;28;20029;-76
2020/12/06 07:12:49;;;;;;;26.38;14.40;;;7.00;99.90;;;;;;5048585;28;20035;-76
2020/12/06 07:15:17;;;;;;;26.92;11.88;;;7.00;99.90;;;;;;5044681;28;20025;-77
2020/12/06 07:17:43;;;;;;;23.20;12.55;;;7.00;99.90;;;;;;5049304;28;20522;-76
2020/12/06 07:20:12;;;;;;;28.83;13.75;;;7.00;99.90;;;;;;5040150;28;20041;-77
2020/12/06 07:22:37;;;;;;;25.77;13.18;;;7.00;99.90;;;;;;5042091;28;20017;-77
2020/12/06 07:25:05;;;;;;;26.20;13.05;;;7.00;99.90;;;;;;5047932;28;20167;-76
2020/12/06 07:27:31;;;;;;;24.13;13.20;;;7.00;99.90;;;;;;5044394;28;20035;-76
2020/12/06 07:29:57;;;;;;;26.88;12.13;;;7.00;99.90;;;;;;5048899;28;20057;-76
2020/12/06 07:32:22;;;;;;;20.63;12.55;;;7.10;99.90;;;;;;5043656;28;20036;-76
2020/12/06 07:34:48;;;;;;;22.42;12.15;;;7.10;99.90;;;;;;5049450;28;20031;-76
2020/12/06 07:37:15;;;;;;;24.30;12.38;;;7.10;99.90;;;;;;5044094;28;20032;-76
2020/12/06 07:39:45;;;;;;;28.20;13.02;;;7.10;99.90;;;;;;5049328;28;20025;-76
2020/12/06 07:42:17;;;;;;;19.75;11.63;;;7.20;99.90;;;;;;5049481;28;20056;-76
2020/12/06 07:44:44;;;;;;;24.38;12.90;;;7.20;99.90;;;;;;5050032;28;20119;-76
2020/12/06 07:47:10;;;;;;;22.27;12.18;;;7.20;99.90;;;;;;5048066;28;20047;-77
2020/12/06 07:49:43;;;;;;;21.17;12.40;;;7.20;99.90;;;;;;5045792;28;20025;-77
2020/12/06 07:52:13;;;;;;;22.20;11.65;;;7.20;99.90;;;;;;5049087;28;20044;-77
2020/12/06 07:54:38;;;;;;;24.23;12.90;;;7.20;99.90;;;;;;5040313;28;20030;-77
2020/12/06 07:57:05;;;;;;;23.80;12.00;;;7.20;99.90;;;;;;5038031;28;20083;-76
2020/12/06 07:59:34;;;;;;;25.90;11.77;;;7.30;99.90;;;;;;5046499;28;20170;-76
2020/12/06 08:01:59;;;;;;;24.88;12.25;;;7.30;99.90;;;;;;5044947;28;20032;-76
2020/12/06 08:04:33;;;;;;;21.58;11.45;;;7.40;99.90;;;;;;5048725;28;20390;-76
2020/12/06 08:07:02;;;;;;;19.50;10.73;;;7.40;99.90;;;;;;5043325;28;20033;-76
2020/12/06 08:09:30;;;;;;;23.15;11.60;;;7.50;99.90;;;;;;5037333;28;20139;-77
2020/12/06 08:12:00;;;;;;;22.88;11.05;;;7.50;99.90;;;;;;5042796;28;20033;-77
2020/12/06 08:14:25;;;;;;;21.98;10.65;;;7.60;99.90;;;;;;5049895;28;20032;-77
2020/12/06 08:16:58;;;;;;;18.58;10.57;;;7.70;99.90;;;;;;5038101;28;20246;-76
2020/12/06 08:19:24;;;;;;;20.13;10.60;;;7.70;99.90;;;;;;5039874;28;20785;-76
2020/12/06 08:21:50;;;;;;;20.40;10.73;;;7.70;99.90;;;;;;5049036;28;20123;-77
2020/12/06 08:24:23;;;;;;;21.48;10.57;;;7.80;99.90;;;;;;5046162;28;20086;-76
2020/12/06 08:26:50;;;;;;;17.58;10.15;;;7.80;99.90;;;;;;5042929;28;20036;-76
2020/12/06 08:29:16;;;;;;;17.30;9.88;;;7.80;99.90;;;;;;5039842;28;20053;-77
2020/12/06 08:31:42;;;;;;;23.60;11.25;;;7.90;99.90;;;;;;5044860;28;20570;-74
2020/12/06 08:34:13;;;;;;;19.52;10.30;;;7.90;99.90;;;;;;5045866;28;20220;-74
2020/12/06 08:36:38;;;;;;;23.90;10.77;;;8.00;99.90;;;;;;5043566;28;20467;-75
2020/12/06 08:39:20;;;;;;;21.70;10.18;;;8.00;99.90;;;;;;5046120;28;20024;-76
2020/12/06 08:41:47;;;;;;;22.52;10.75;;;8.00;99.90;;;;;;5039018;28;20024;-74
2020/12/06 08:44:13;;;;;;;16.50;9.95;;;8.00;99.90;;;;;;5045817;28;20078;-74
2020/12/06 08:46:49;;;;;;;21.83;9.85;;;8.00;99.90;;;;;;5048103;28;20025;-74
2020/12/06 08:49:17;;;;;;;18.48;10.25;;;8.10;99.90;;;;;;5048287;28;20033;-76
2020/12/06 08:51:50;;;;;;;20.75;10.25;;;8.10;99.90;;;;;;5041049;28;20024;-76
2020/12/06 08:54:34;;;;;;;21.60;10.57;;;8.10;99.90;;;;;;5039543;28;20030;-77
2020/12/06 08:57:26;;;;;;;21.35;11.15;;;8.20;99.90;;;;;;5037597;28;20057;-77
2020/12/06 08:59:52;;;;;;;22.23;11.82;;;8.20;99.90;;;;;;5041144;28;20033;-76
2020/12/06 09:02:23;;;;;;;23.48;11.77;;;8.20;99.90;;;;;;5045680;28;20113;-75
2020/12/06 09:04:49;;;;;;;21.43;10.77;;;8.30;99.90;;;;;;5028819;28;20458;-80
2020/12/06 09:07:14;;;;;;;21.60;10.40;;;8.30;99.90;;;;;;5044141;28;20052;-80
2020/12/06 09:09:40;;;;;;;23.55;11.32;;;8.40;99.90;;;;;;5043917;28;20566;-79
2020/12/06 09:12:05;;;;;;;22.88;11.50;;;8.40;99.90;;;;;;5044518;28;20021;-80
2020/12/06 09:14:31;;;;;;;26.98;12.00;;;8.40;99.90;;;;;;5040751;28;20578;-79
2020/12/06 09:16:56;;;;;;;21.95;10.27;;;8.50;99.90;;;;;;5046118;28;20075;-79
2020/12/06 09:19:21;;;;;;;22.63;10.43;;;8.50;99.90;;;;;;5044874;28;20025;-80
2020/12/06 09:21:47;;;;;;;20.38;10.48;;;8.50;99.90;;;;;;5044590;28;20025;-81
2020/12/06 09:24:12;;;;;;;22.25;10.02;;;8.50;99.90;;;;;;5042389;28;20653;-79
2020/12/06 09:26:38;;;;;;;18.98;9.05;;;8.60;99.90;;;;;;5043860;28;20025;-79
2020/12/06 09:29:04;;;;;;;20.80;9.90;;;8.70;99.90;;;;;;5044843;28;20511;-80
2020/12/06 09:31:29;;;;;;;22.83;10.27;;;8.80;99.90;;;;;;5045129;28;20021;-81
2020/12/06 09:33:55;;;;;;;17.35;9.38;;;8.90;99.90;;;;;;5039423;28;20028;-84
2020/12/06 09:36:22;;;;;;;17.67;9.93;;;9.00;99.90;;;;;;5042195;28;20111;-83
2020/12/06 09:38:47;;;;;;;20.20;10.00;;;9.10;99.90;;;;;;5045254;28;20021;-83
2020/12/06 09:41:13;;;;;;;22.35;9.55;;;9.10;99.90;;;;;;5042225;28;20078;-78
2020/12/06 09:43:40;;;;;;;16.10;9.25;;;9.10;99.90;;;;;;5042302;28;20040;-81
2020/12/06 09:46:05;;;;;;;15.52;9.10;;;9.20;99.90;;;;;;5044013;28;20117;-84
2020/12/06 09:48:31;;;;;;;16.70;9.68;;;9.20;99.90;;;;;;5040579;28;20127;-80
2020/12/06 09:50:57;;;;;;;18.27;9.80;;;9.20;99.90;;;;;;5043643;28;20021;-91
2020/12/06 09:53:22;;;;;;;18.40;9.55;;;9.30;99.90;;;;;;5043012;28;20051;-80
2020/12/06 09:55:48;;;;;;;16.77;9.27;;;9.40;99.90;;;;;;5045267;28;20550;-83
2020/12/06 09:58:13;;;;;;;20.95;9.77;;;9.50;99.90;;;;;;5042013;28;20693;-82
2020/12/06 10:00:39;;;;;;;16.33;9.43;;;9.60;99.90;;;;;;5043882;28;20025;-85
2020/12/06 10:03:04;;;;;;;15.65;8.65;;;9.70;99.90;;;;;;5044840;28;20029;-82
2020/12/06 10:05:30;;;;;;;18.17;8.70;;;9.70;99.90;;;;;;5044392;28;20042;-85
2020/12/06 10:07:55;;;;;;;17.08;8.20;;;9.80;99.90;;;;;;5042099;28;20920;-79
2020/12/06 10:10:21;;;;;;;16.25;8.73;;;9.90;99.90;;;;;;5047426;28;20100;-83
2020/12/06 10:12:46;;;;;;;17.75;9.18;;;9.90;99.90;;;;;;5046308;28;20626;-81
2020/12/06 10:15:12;;;;;;;14.75;7.93;;;10.00;99.90;;;;;;5042294;28;20025;-85
2020/12/06 10:17:38;;;;;;;14.98;9.18;;;10.10;99.90;;;;;;5044086;28;20078;-81
2020/12/06 10:20:06;;;;;;;16.08;8.93;;;10.20;99.90;;;;;;5035743;28;20067;-79
2020/12/06 10:22:31;;;;;;;14.35;9.05;;;10.30;99.90;;;;;;5043083;28;20028;-77
2020/12/06 10:24:57;;;;;;;16.35;8.57;;;10.30;99.90;;;;;;5044648;28;20075;-82
2020/12/06 10:27:22;;;;;;;14.45;7.90;;;10.50;99.90;;;;;;5041817;28;20063;-81
2020/12/06 10:29:47;;;;;;;12.57;7.65;;;10.50;99.90;;;;;;5040858;28;20061;-79
2020/12/06 10:32:13;;;;;;;15.85;8.85;;;10.60;99.90;;;;;;5028842;28;20138;-77
2020/12/06 10:34:39;;;;;;;14.38;8.07;;;10.60;99.90;;;;;;5037455;28;20025;-76
2020/12/06 10:37:04;;;;;;;15.88;8.52;;;10.60;99.90;;;;;;5044182;28;20025;-76
2020/12/06 10:39:30;;;;;;;14.05;8.63;;;10.60;99.90;;;;;;5039147;28;20047;-77
2020/12/06 10:41:56;;;;;;;16.95;8.95;;;10.70;99.90;;;;;;5038988;28;20212;-75
2020/12/06 10:44:24;;;;;;;16.55;7.85;;;10.70;99.90;;;;;;5038611;28;20128;-76
2020/12/06 10:46:50;;;;;;;13.65;8.18;;;10.90;99.90;;;;;;5042071;28;20037;-75
2020/12/06 10:49:16;;;;;;;14.07;8.32;;;10.90;99.90;;;;;;5035587;28;20434;-75
2020/12/06 10:51:43;;;;;;;16.13;8.02;;;11.00;99.90;;;;;;5040468;28;20032;-76
2020/12/06 10:54:09;;;;;;;16.15;8.30;;;11.00;99.90;;;;;;5033598;28;20033;-75
2020/12/06 10:56:39;;;;;;;12.23;7.60;;;11.00;99.90;;;;;;5043496;28;20112;-74
2020/12/06 10:59:05;;;;;;;17.20;8.43;;;11.00;99.90;;;;;;5037368;28;20399;-75
2020/12/06 11:01:32;;;;;;;17.00;8.27;;;11.10;99.90;;;;;;5034721;28;20740;-77
2020/12/06 11:04:01;;;;;;;11.70;7.43;;;11.20;99.90;;;;;;5032095;28;20025;-74
2020/12/06 11:06:27;;;;;;;13.00;8.45;;;11.30;99.90;;;;;;5037792;28;20025;-75
2020/12/06 11:08:53;;;;;;;12.60;8.07;;;11.30;99.90;;;;;;5036552;28;20502;-77
2020/12/06 11:11:21;;;;;;;18.48;8.55;;;11.30;99.90;;;;;;5037338;28;20133;-77
2020/12/06 11:13:47;;;;;;;11.30;7.75;;;11.20;99.90;;;;;;5033252;28;20041;-77
2020/12/06 11:16:17;;;;;;;11.80;7.47;;;11.30;99.90;;;;;;5034413;28;20044;-78
2020/12/06 11:18:43;;;;;;;13.07;7.70;;;11.40;99.90;;;;;;5033733;28;20487;-77
2020/12/06 11:21:09;;;;;;;12.82;8.10;;;11.50;99.90;;;;;;5034514;28;20039;-77
2020/12/06 11:23:35;;;;;;;13.85;7.88;;;11.50;99.90;;;;;;5034636;28;20277;-80
2020/12/06 11:26:01;;;;;;;12.98;8.23;;;11.60;99.90;;;;;;5030988;28;20058;-77
2020/12/06 11:28:26;;;;;;;15.25;8.10;;;11.70;99.90;;;;;;5031116;28;20038;-78
2020/12/06 11:30:52;;;;;;;15.02;7.95;;;11.80;99.90;;;;;;5034954;28;20023;-77
2020/12/06 11:33:17;;;;;;;13.90;7.90;;;11.90;99.90;;;;;;5039472;28;20033;-78
2020/12/06 11:35:43;;;;;;;11.40;6.90;;;12.00;99.90;;;;;;5047959;28;20035;-79
2020/12/06 11:38:09;;;;;;;14.32;8.07;;;11.90;99.90;;;;;;5036198;28;20634;-78
2020/12/06 11:40:34;;;;;;;13.77;7.68;;;11.80;99.90;;;;;;5040337;28;20068;-78
2020/12/06 11:43:00;;;;;;;14.60;7.75;;;11.70;99.90;;;;;;5035380;28;20509;-77
2020/12/06 11:45:25;;;;;;;12.25;7.63;;;11.60;99.90;;;;;;5041932;28;20142;-77
2020/12/06 11:47:51;;;;;;;13.85;8.43;;;11.60;99.90;;;;;;5038681;28;21357;-77
2020/12/06 11:50:17;;;;;;;12.70;7.32;;;11.60;99.90;;;;;;5036013;28;20377;-78
2020/12/06 11:52:43;;;;;;;14.80;8.50;;;11.50;99.90;;;;;;5039257;28;20104;-80
2020/12/06 11:55:09;;;;;;;14.70;8.07;;;11.60;99.90;;;;;;5043398;28;20476;-80
2020/12/06 11:57:36;;;;;;;12.63;7.75;;;11.60;99.90;;;;;;5036683;28;20028;-80
2020/12/06 12:00:03;;;;;;;12.90;8.02;;;11.60;99.90;;;;;;5041724;28;20027;-80
2020/12/06 12:02:29;;;;;;;14.98;8.45;;;11.60;99.90;;;;;;5041675;28;20028;-79
2020/12/06 12:04:54;;;;;;;15.88;8.90;;;11.70;99.90;;;;;;5041289;28;20536;-80
2020/12/06 12:07:20;;;;;;;13.13;8.55;;;11.80;99.90;;;;;;5036369;28;20095;-80
2020/12/06 12:09:46;;;;;;;16.10;8.35;;;11.90;99.90;;;;;;5039779;28;20027;-80
2020/12/06 12:12:11;;;;;;;16.35;8.60;;;11.90;99.90;;;;;;5042750;28;20091;-80
2020/12/06 12:14:37;;;;;;;16.25;8.35;;;12.00;99.90;;;;;;5043748;28;20028;-78
2020/12/06 12:17:02;;;;;;;11.93;7.65;;;12.00;99.90;;;;;;5044307;28;20024;-77
2020/12/06 12:19:28;;;;;;;19.75;9.70;;;12.10;99.90;;;;;;5045140;28;20029;-80
2020/12/06 12:21:53;;;;;;;14.95;8.98;;;12.00;99.90;;;;;;5046715;28;20025;-86
2020/12/06 12:24:19;;;;;;;13.50;8.05;;;12.00;99.90;;;;;;5040813;28;20055;-74
2020/12/06 12:26:44;;;;;;;17.17;10.70;;;12.00;99.90;;;;;;5043805;28;20059;-73
2020/12/06 12:29:09;;;;;;;17.70;9.95;;;12.00;99.90;;;;;;5044208;28;20037;-74
2020/12/06 12:31:35;;;;;;;17.83;10.80;;;12.00;99.90;;;;;;5044782;28;20399;-74
2020/12/06 12:34:00;;;;;;;21.83;12.48;;;12.00;99.90;;;;;;5041927;28;20036;-74
2020/12/06 12:36:26;;;;;;;29.52;13.63;;;12.00;99.90;;;;;;5045784;28;20513;-74